sensor_id;sensor_type;location;lat;lon;timestamp;pressure;altitude;pressure_sealevel;temperature;humidity
16525;BME280;8375;33.594;-117.718;2022-09-01T00:02:05;99547.38;;;38.40;21.65
16525;BME280;8375;33.594;-117.718;2022-09-01T00:04:36;99535.78;;;38.13;22.28
16525;BME280;8375;33.594;-117.718;2022-09-01T00:07:05;99552.66;;;38.01;21.76
16525;BME280;8375;33.594;-117.718;2022-09-01T00:09:35;99548.47;;;37.60;21.40
16525;BME280;8375;33.594;-117.718;2022-09-01T00:12:06;99545.69;;;37.34;21.37
16525;BME280;8375;33.594;-117.718;2022-09-01T00:14:37;99541.19;;;37.20;21.70
16525;BME280;8375;33.594;-117.718;2022-09-01T00:17:09;99545.41;;;37.04;21.08
16525;BME280;8375;33.594;-117.718;2022-09-01T00:19:38;99541.31;;;36.83;21.46
16525;BME280;8375;33.594;-117.718;2022-09-01T00:22:11;99547.00;;;36.73;21.93
16525;BME280;8375;33.594;-117.718;2022-09-01T00:24:40;99547.31;;;36.49;22.75
16525;BME280;8375;33.594;-117.718;2022-09-01T00:27:11;99542.88;;;36.30;22.95
16525;BME280;8375;33.594;-117.718;2022-09-01T00:29:39;99546.03;;;36.23;22.88
16525;BME280;8375;33.594;-117.718;2022-09-01T00:32:08;99551.72;;;36.22;23.03
16525;BME280;8375;33.594;-117.718;2022-09-01T00:34:38;99547.75;;;36.19;22.71
16525;BME280;8375;33.594;-117.718;2022-09-01T00:37:06;99548.09;;;36.26;22.79
16525;BME280;8375;33.594;-117.718;2022-09-01T00:39:35;99543.31;;;36.23;22.03
16525;BME280;8375;33.594;-117.718;2022-09-01T00:42:04;99546.03;;;36.23;21.96
16525;BME280;8375;33.594;-117.718;2022-09-01T00:44:34;99545.28;;;36.09;22.37
16525;BME280;8375;33.594;-117.718;2022-09-01T00:47:04;99536.00;;;36.01;22.28
16525;BME280;8375;33.594;-117.718;2022-09-01T00:49:35;99532.94;;;35.80;22.48
16525;BME280;8375;33.594;-117.718;2022-09-01T00:52:08;99530.53;;;35.78;22.69
16525;BME280;8375;33.594;-117.718;2022-09-01T00:54:42;99526.72;;;35.79;22.54
16525;BME280;8375;33.594;-117.718;2022-09-01T00:57:12;99523.03;;;35.75;22.40
16525;BME280;8375;33.594;-117.718;2022-09-01T00:59:47;99524.91;;;35.89;22.30
16525;BME280;8375;33.594;-117.718;2022-09-01T01:02:17;99520.59;;;35.88;22.00
16525;BME280;8375;33.594;-117.718;2022-09-01T01:04:45;99513.78;;;36.04;22.29
16525;BME280;8375;33.594;-117.718;2022-09-01T01:07:14;99516.81;;;36.25;22.34
16525;BME280;8375;33.594;-117.718;2022-09-01T01:09:44;99520.09;;;36.45;21.57
16525;BME280;8375;33.594;-117.718;2022-09-01T01:12:14;99520.13;;;36.22;20.92
16525;BME280;8375;33.594;-117.718;2022-09-01T01:14:46;99527.66;;;36.11;21.38
16525;BME280;8375;33.594;-117.718;2022-09-01T01:17:16;99521.78;;;35.95;20.88
16525;BME280;8375;33.594;-117.718;2022-09-01T01:19:46;99525.78;;;35.98;20.96
16525;BME280;8375;33.594;-117.718;2022-09-01T01:22:40;99525.88;;;36.07;21.02
16525;BME280;8375;33.594;-117.718;2022-09-01T01:25:34;99528.09;;;36.05;21.17
16525;BME280;8375;33.594;-117.718;2022-09-01T01:28:06;99515.09;;;36.07;21.27
16525;BME280;8375;33.594;-117.718;2022-09-01T01:30:37;99521.28;;;36.07;21.59
16525;BME280;8375;33.594;-117.718;2022-09-01T01:33:07;99519.00;;;35.87;21.95
16525;BME280;8375;33.594;-117.718;2022-09-01T01:35:36;99519.19;;;35.67;22.29
16525;BME280;8375;33.594;-117.718;2022-09-01T01:38:05;99511.59;;;35.28;21.90
16525;BME280;8375;33.594;-117.718;2022-09-01T01:40:37;99507.09;;;34.95;22.13
16525;BME280;8375;33.594;-117.718;2022-09-01T01:43:07;99506.56;;;34.65;22.60
16525;BME280;8375;33.594;-117.718;2022-09-01T01:45:37;99512.13;;;34.55;23.21
16525;BME280;8375;33.594;-117.718;2022-09-01T01:48:06;99506.66;;;34.41;23.52
16525;BME280;8375;33.594;-117.718;2022-09-01T01:50:36;99512.72;;;34.32;23.94
16525;BME280;8375;33.594;-117.718;2022-09-01T01:53:05;99509.78;;;34.29;23.94
16525;BME280;8375;33.594;-117.718;2022-09-01T01:55:35;99506.16;;;34.19;24.05
16525;BME280;8375;33.594;-117.718;2022-09-01T01:58:04;99501.53;;;34.06;24.96
16525;BME280;8375;33.594;-117.718;2022-09-01T02:00:37;99503.19;;;34.02;25.55
16525;BME280;8375;33.594;-117.718;2022-09-01T02:03:12;99490.41;;;33.93;25.57
16525;BME280;8375;33.594;-117.718;2022-09-01T02:05:42;99485.44;;;33.82;25.84
16525;BME280;8375;33.594;-117.718;2022-09-01T02:08:11;99483.47;;;33.68;25.98
16525;BME280;8375;33.594;-117.718;2022-09-01T02:10:44;99479.91;;;33.54;25.49
16525;BME280;8375;33.594;-117.718;2022-09-01T02:13:19;99487.31;;;33.43;25.27
16525;BME280;8375;33.594;-117.718;2022-09-01T02:15:57;99488.41;;;33.36;25.17
16525;BME280;8375;33.594;-117.718;2022-09-01T02:18:31;99491.81;;;33.23;26.02
16525;BME280;8375;33.594;-117.718;2022-09-01T02:21:03;99494.47;;;33.04;25.95
16525;BME280;8375;33.594;-117.718;2022-09-01T02:23:36;99494.22;;;33.00;24.91
16525;BME280;8375;33.594;-117.718;2022-09-01T02:26:10;99491.41;;;32.86;24.92
16525;BME280;8375;33.594;-117.718;2022-09-01T02:28:42;99490.94;;;32.79;25.58
16525;BME280;8375;33.594;-117.718;2022-09-01T02:31:11;99492.56;;;32.75;25.51
16525;BME280;8375;33.594;-117.718;2022-09-01T02:33:42;99486.69;;;32.73;25.43
16525;BME280;8375;33.594;-117.718;2022-09-01T02:36:14;99491.25;;;33.02;25.04
16525;BME280;8375;33.594;-117.718;2022-09-01T02:38:45;99486.88;;;33.30;24.54
16525;BME280;8375;33.594;-117.718;2022-09-01T02:41:16;99495.81;;;33.50;24.71
16525;BME280;8375;33.594;-117.718;2022-09-01T02:43:48;99490.66;;;33.54;24.16
16525;BME280;8375;33.594;-117.718;2022-09-01T02:46:17;99492.41;;;33.44;24.52
16525;BME280;8375;33.594;-117.718;2022-09-01T02:48:49;99493.53;;;33.38;24.70
16525;BME280;8375;33.594;-117.718;2022-09-01T02:51:19;99494.44;;;33.28;25.42
16525;BME280;8375;33.594;-117.718;2022-09-01T02:53:50;99495.66;;;33.41;25.09
16525;BME280;8375;33.594;-117.718;2022-09-01T02:56:22;99500.97;;;33.46;25.06
16525;BME280;8375;33.594;-117.718;2022-09-01T02:58:53;99505.78;;;33.49;24.94
16525;BME280;8375;33.594;-117.718;2022-09-01T03:01:25;99507.38;;;33.50;24.69
16525;BME280;8375;33.594;-117.718;2022-09-01T03:03:56;99508.53;;;33.44;25.34
16525;BME280;8375;33.594;-117.718;2022-09-01T03:06:25;99508.03;;;33.42;25.03
16525;BME280;8375;33.594;-117.718;2022-09-01T03:08:57;99517.19;;;33.41;25.12
16525;BME280;8375;33.594;-117.718;2022-09-01T03:11:30;99520.41;;;33.38;25.17
16525;BME280;8375;33.594;-117.718;2022-09-01T03:14:00;99517.44;;;33.15;25.53
16525;BME280;8375;33.594;-117.718;2022-09-01T03:16:29;99522.59;;;32.82;25.80
16525;BME280;8375;33.594;-117.718;2022-09-01T03:18:58;99527.38;;;32.56;26.43
16525;BME280;8375;33.594;-117.718;2022-09-01T03:21:29;99529.19;;;32.31;26.84
16525;BME280;8375;33.594;-117.718;2022-09-01T03:23:57;99528.97;;;32.22;27.28
16525;BME280;8375;33.594;-117.718;2022-09-01T03:26:29;99521.31;;;32.00;27.41
16525;BME280;8375;33.594;-117.718;2022-09-01T03:28:58;99528.66;;;31.84;27.41
16525;BME280;8375;33.594;-117.718;2022-09-01T03:31:27;99532.19;;;31.74;28.41
16525;BME280;8375;33.594;-117.718;2022-09-01T03:33:56;99536.19;;;31.66;28.03
16525;BME280;8375;33.594;-117.718;2022-09-01T03:36:26;99544.03;;;31.57;28.33
16525;BME280;8375;33.594;-117.718;2022-09-01T03:38:55;99542.69;;;31.50;28.71
16525;BME280;8375;33.594;-117.718;2022-09-01T03:41:26;99540.59;;;31.41;29.12
16525;BME280;8375;33.594;-117.718;2022-09-01T03:43:57;99553.50;;;31.24;29.16
16525;BME280;8375;33.594;-117.718;2022-09-01T03:46:27;99553.50;;;31.13;29.54
16525;BME280;8375;33.594;-117.718;2022-09-01T03:48:58;99554.88;;;31.06;29.21
16525;BME280;8375;33.594;-117.718;2022-09-01T03:51:30;99558.34;;;31.01;30.38
16525;BME280;8375;33.594;-117.718;2022-09-01T03:53:59;99565.31;;;30.97;30.20
16525;BME280;8375;33.594;-117.718;2022-09-01T03:56:28;99568.00;;;30.92;31.19
16525;BME280;8375;33.594;-117.718;2022-09-01T03:58:59;99566.41;;;30.80;31.04
16525;BME280;8375;33.594;-117.718;2022-09-01T04:01:29;99568.53;;;30.68;31.08
16525;BME280;8375;33.594;-117.718;2022-09-01T04:04:00;99561.28;;;30.53;31.93
16525;BME280;8375;33.594;-117.718;2022-09-01T04:06:31;99566.88;;;30.41;32.44
16525;BME280;8375;33.594;-117.718;2022-09-01T04:09:00;99570.09;;;30.33;32.32
16525;BME280;8375;33.594;-117.718;2022-09-01T04:11:29;99573.03;;;30.26;32.28
16525;BME280;8375;33.594;-117.718;2022-09-01T04:14:01;99568.72;;;30.14;32.78
16525;BME280;8375;33.594;-117.718;2022-09-01T04:16:31;99564.94;;;30.00;34.14
16525;BME280;8375;33.594;-117.718;2022-09-01T04:19:18;99561.38;;;29.89;33.84
16525;BME280;8375;33.594;-117.718;2022-09-01T04:21:52;99561.31;;;29.74;34.24
16525;BME280;8375;33.594;-117.718;2022-09-01T04:24:22;99560.97;;;29.49;35.48
16525;BME280;8375;33.594;-117.718;2022-09-01T04:26:53;99562.16;;;29.31;37.02
16525;BME280;8375;33.594;-117.718;2022-09-01T04:29:26;99568.53;;;29.25;37.49
16525;BME280;8375;33.594;-117.718;2022-09-01T04:31:56;99571.06;;;29.04;37.93
16525;BME280;8375;33.594;-117.718;2022-09-01T04:34:28;99578.69;;;28.90;37.90
16525;BME280;8375;33.594;-117.718;2022-09-01T04:37:06;99572.66;;;28.73;38.86
16525;BME280;8375;33.594;-117.718;2022-09-01T04:39:34;99578.88;;;28.51;39.01
16525;BME280;8375;33.594;-117.718;2022-09-01T04:42:04;99573.69;;;28.39;39.47
16525;BME280;8375;33.594;-117.718;2022-09-01T04:44:37;99575.53;;;28.38;39.21
16525;BME280;8375;33.594;-117.718;2022-09-01T04:47:06;99570.22;;;28.38;39.26
16525;BME280;8375;33.594;-117.718;2022-09-01T04:49:36;99572.81;;;28.33;40.09
16525;BME280;8375;33.594;-117.718;2022-09-01T04:52:05;99567.19;;;28.30;40.30
16525;BME280;8375;33.594;-117.718;2022-09-01T04:54:33;99575.66;;;28.21;40.30
16525;BME280;8375;33.594;-117.718;2022-09-01T04:57:03;99578.81;;;28.18;39.78
16525;BME280;8375;33.594;-117.718;2022-09-01T04:59:32;99583.59;;;28.16;39.31
16525;BME280;8375;33.594;-117.718;2022-09-01T05:02:03;99578.97;;;28.11;40.22
16525;BME280;8375;33.594;-117.718;2022-09-01T05:04:33;99592.03;;;28.08;39.78
16525;BME280;8375;33.594;-117.718;2022-09-01T05:07:02;99585.81;;;28.02;39.69
16525;BME280;8375;33.594;-117.718;2022-09-01T05:09:33;99582.22;;;27.91;40.25
16525;BME280;8375;33.594;-117.718;2022-09-01T05:12:04;99589.91;;;27.88;40.75
16525;BME280;8375;33.594;-117.718;2022-09-01T05:14:40;99579.44;;;27.81;41.73
16525;BME280;8375;33.594;-117.718;2022-09-01T05:17:12;99577.25;;;27.78;41.70
16525;BME280;8375;33.594;-117.718;2022-09-01T05:19:42;99576.94;;;27.74;41.25
16525;BME280;8375;33.594;-117.718;2022-09-01T05:22:14;99581.22;;;27.75;41.19
16525;BME280;8375;33.594;-117.718;2022-09-01T05:24:43;99584.44;;;27.77;41.09
16525;BME280;8375;33.594;-117.718;2022-09-01T05:27:14;99571.38;;;27.76;40.84
16525;BME280;8375;33.594;-117.718;2022-09-01T05:29:43;99555.13;;;27.77;41.05
16525;BME280;8375;33.594;-117.718;2022-09-01T05:32:14;99570.06;;;27.78;40.85
16525;BME280;8375;33.594;-117.718;2022-09-01T05:34:42;99568.09;;;27.69;41.27
16525;BME280;8375;33.594;-117.718;2022-09-01T05:37:11;99576.44;;;27.55;41.64
16525;BME280;8375;33.594;-117.718;2022-09-01T05:39:40;99579.25;;;27.48;42.31
16525;BME280;8375;33.594;-117.718;2022-09-01T05:42:08;99582.56;;;27.38;42.30
16525;BME280;8375;33.594;-117.718;2022-09-01T05:44:38;99583.28;;;27.34;42.48
16525;BME280;8375;33.594;-117.718;2022-09-01T05:47:09;99579.06;;;27.16;43.31
16525;BME280;8375;33.594;-117.718;2022-09-01T05:49:40;99581.88;;;27.09;42.76
16525;BME280;8375;33.594;-117.718;2022-09-01T05:52:09;99576.22;;;27.05;43.10
16525;BME280;8375;33.594;-117.718;2022-09-01T05:54:38;99568.66;;;26.97;43.67
16525;BME280;8375;33.594;-117.718;2022-09-01T05:57:06;99562.69;;;26.90;43.57
16525;BME280;8375;33.594;-117.718;2022-09-01T05:59:35;99573.81;;;26.87;44.06
16525;BME280;8375;33.594;-117.718;2022-09-01T06:02:07;99570.88;;;26.71;43.99
16525;BME280;8375;33.594;-117.718;2022-09-01T06:04:39;99573.53;;;26.71;44.83
16525;BME280;8375;33.594;-117.718;2022-09-01T06:07:11;99571.34;;;26.68;44.33
16525;BME280;8375;33.594;-117.718;2022-09-01T06:09:41;99572.78;;;26.59;44.83
16525;BME280;8375;33.594;-117.718;2022-09-01T06:12:10;99564.84;;;26.47;44.83
16525;BME280;8375;33.594;-117.718;2022-09-01T06:14:42;99559.75;;;26.45;45.02
16525;BME280;8375;33.594;-117.718;2022-09-01T06:17:11;99561.53;;;26.40;45.40
16525;BME280;8375;33.594;-117.718;2022-09-01T06:19:43;99561.75;;;26.38;45.34
16525;BME280;8375;33.594;-117.718;2022-09-01T06:22:12;99568.38;;;26.35;45.41
16525;BME280;8375;33.594;-117.718;2022-09-01T06:24:42;99576.56;;;26.34;45.51
16525;BME280;8375;33.594;-117.718;2022-09-01T06:27:13;99575.69;;;26.28;46.08
16525;BME280;8375;33.594;-117.718;2022-09-01T06:29:45;99572.38;;;26.21;46.84
16525;BME280;8375;33.594;-117.718;2022-09-01T06:32:20;99570.97;;;26.18;46.76
16525;BME280;8375;33.594;-117.718;2022-09-01T06:34:52;99580.00;;;26.17;45.79
16525;BME280;8375;33.594;-117.718;2022-09-01T06:37:23;99576.75;;;26.15;45.67
16525;BME280;8375;33.594;-117.718;2022-09-01T06:39:52;99582.53;;;26.12;45.73
16525;BME280;8375;33.594;-117.718;2022-09-01T06:42:20;99579.75;;;26.07;46.10
16525;BME280;8375;33.594;-117.718;2022-09-01T06:44:49;99576.41;;;26.12;46.02
16525;BME280;8375;33.594;-117.718;2022-09-01T06:47:17;99578.63;;;26.03;46.97
16525;BME280;8375;33.594;-117.718;2022-09-01T06:49:46;99581.75;;;26.00;46.93
16525;BME280;8375;33.594;-117.718;2022-09-01T06:52:17;99585.03;;;25.90;46.73
16525;BME280;8375;33.594;-117.718;2022-09-01T06:54:46;99588.16;;;25.87;46.94
16525;BME280;8375;33.594;-117.718;2022-09-01T06:57:17;99587.22;;;25.81;47.70
16525;BME280;8375;33.594;-117.718;2022-09-01T06:59:47;99581.34;;;25.79;48.06
16525;BME280;8375;33.594;-117.718;2022-09-01T07:02:16;99576.94;;;25.73;48.06
16525;BME280;8375;33.594;-117.718;2022-09-01T07:04:45;99573.72;;;25.71;48.51
16525;BME280;8375;33.594;-117.718;2022-09-01T07:07:14;99564.69;;;25.72;48.56
16525;BME280;8375;33.594;-117.718;2022-09-01T07:09:44;99555.59;;;25.68;47.93
16525;BME280;8375;33.594;-117.718;2022-09-01T07:12:14;99560.09;;;25.67;48.11
16525;BME280;8375;33.594;-117.718;2022-09-01T07:14:45;99564.75;;;25.60;47.43
16525;BME280;8375;33.594;-117.718;2022-09-01T07:17:14;99565.88;;;25.40;47.97
16525;BME280;8375;33.594;-117.718;2022-09-01T07:19:43;99562.97;;;25.42;49.50
16525;BME280;8375;33.594;-117.718;2022-09-01T07:22:13;99566.66;;;25.41;50.14
16525;BME280;8375;33.594;-117.718;2022-09-01T07:24:43;99561.59;;;25.39;49.55
16525;BME280;8375;33.594;-117.718;2022-09-01T07:27:12;99556.19;;;25.34;49.47
16525;BME280;8375;33.594;-117.718;2022-09-01T07:29:41;99552.59;;;25.28;49.74
16525;BME280;8375;33.594;-117.718;2022-09-01T07:32:10;99560.56;;;25.28;49.19
16525;BME280;8375;33.594;-117.718;2022-09-01T07:34:43;99561.38;;;25.17;49.40
16525;BME280;8375;33.594;-117.718;2022-09-01T07:37:12;99564.16;;;25.10;50.20
16525;BME280;8375;33.594;-117.718;2022-09-01T07:39:40;99565.19;;;25.09;50.49
16525;BME280;8375;33.594;-117.718;2022-09-01T07:42:12;99562.16;;;25.05;49.77
16525;BME280;8375;33.594;-117.718;2022-09-01T07:44:42;99554.06;;;25.00;49.65
16525;BME280;8375;33.594;-117.718;2022-09-01T07:47:11;99542.75;;;24.93;49.92
16525;BME280;8375;33.594;-117.718;2022-09-01T07:49:41;99535.03;;;24.92;50.62
16525;BME280;8375;33.594;-117.718;2022-09-01T07:52:10;99542.88;;;24.86;51.07
16525;BME280;8375;33.594;-117.718;2022-09-01T07:54:38;99542.50;;;24.83;50.79
16525;BME280;8375;33.594;-117.718;2022-09-01T07:57:07;99546.19;;;24.82;50.91
16525;BME280;8375;33.594;-117.718;2022-09-01T07:59:37;99556.53;;;24.71;51.42
16525;BME280;8375;33.594;-117.718;2022-09-01T08:02:06;99542.88;;;24.56;52.25
16525;BME280;8375;33.594;-117.718;2022-09-01T08:04:35;99541.72;;;24.52;51.94
16525;BME280;8375;33.594;-117.718;2022-09-01T08:07:05;99536.41;;;24.40;52.98
16525;BME280;8375;33.594;-117.718;2022-09-01T08:09:36;99522.31;;;24.39;53.04
16525;BME280;8375;33.594;-117.718;2022-09-01T08:12:04;99515.19;;;24.40;53.02
16525;BME280;8375;33.594;-117.718;2022-09-01T08:14:33;99514.00;;;24.36;53.00
16525;BME280;8375;33.594;-117.718;2022-09-01T08:17:04;99512.41;;;24.35;52.88
16525;BME280;8375;33.594;-117.718;2022-09-01T08:19:32;99519.25;;;24.24;53.88
16525;BME280;8375;33.594;-117.718;2022-09-01T08:22:01;99513.69;;;24.13;53.99
16525;BME280;8375;33.594;-117.718;2022-09-01T08:24:29;99506.78;;;24.12;54.29
16525;BME280;8375;33.594;-117.718;2022-09-01T08:26:58;99504.69;;;24.14;54.89
16525;BME280;8375;33.594;-117.718;2022-09-01T08:29:26;99507.22;;;24.09;54.67
16525;BME280;8375;33.594;-117.718;2022-09-01T08:31:55;99515.09;;;23.97;55.54
16525;BME280;8375;33.594;-117.718;2022-09-01T08:34:26;99514.16;;;23.73;55.62
16525;BME280;8375;33.594;-117.718;2022-09-01T08:36:54;99512.53;;;23.72;55.55
16525;BME280;8375;33.594;-117.718;2022-09-01T08:39:23;99509.44;;;23.75;55.89
16525;BME280;8375;33.594;-117.718;2022-09-01T08:41:57;99496.19;;;23.75;55.68
16525;BME280;8375;33.594;-117.718;2022-09-01T08:44:34;99506.94;;;23.80;55.56
16525;BME280;8375;33.594;-117.718;2022-09-01T08:47:06;99505.09;;;23.81;55.05
16525;BME280;8375;33.594;-117.718;2022-09-01T08:49:38;99497.97;;;23.81;54.87
16525;BME280;8375;33.594;-117.718;2022-09-01T08:52:20;99497.97;;;23.81;55.09
16525;BME280;8375;33.594;-117.718;2022-09-01T08:54:54;99498.41;;;23.78;55.52
16525;BME280;8375;33.594;-117.718;2022-09-01T08:57:28;99498.25;;;23.73;55.20
16525;BME280;8375;33.594;-117.718;2022-09-01T08:59:59;99498.25;;;23.73;55.78
16525;BME280;8375;33.594;-117.718;2022-09-01T09:02:38;99486.25;;;23.70;55.78
16525;BME280;8375;33.594;-117.718;2022-09-01T09:05:26;99490.16;;;23.68;55.92
16525;BME280;8375;33.594;-117.718;2022-09-01T09:08:08;99481.41;;;23.67;55.92
16525;BME280;8375;33.594;-117.718;2022-09-01T09:10:52;99480.00;;;23.65;55.94
16525;BME280;8375;33.594;-117.718;2022-09-01T09:13:31;99476.34;;;23.66;55.66
16525;BME280;8375;33.594;-117.718;2022-09-01T09:16:05;99467.41;;;23.60;55.70
16525;BME280;8375;33.594;-117.718;2022-09-01T09:18:41;99470.38;;;23.52;56.09
16525;BME280;8375;33.594;-117.718;2022-09-01T09:21:15;99467.72;;;23.52;56.30
16525;BME280;8375;33.594;-117.718;2022-09-01T09:23:53;99480.47;;;23.43;56.84
16525;BME280;8375;33.594;-117.718;2022-09-01T09:26:22;99484.03;;;23.30;57.35
16525;BME280;8375;33.594;-117.718;2022-09-01T09:28:50;99480.38;;;23.31;57.34
16525;BME280;8375;33.594;-117.718;2022-09-01T09:31:28;99484.97;;;23.17;57.75
16525;BME280;8375;33.594;-117.718;2022-09-01T09:33:58;99484.66;;;23.07;57.96
16525;BME280;8375;33.594;-117.718;2022-09-01T09:36:33;99479.13;;;23.08;57.94
16525;BME280;8375;33.594;-117.718;2022-09-01T09:39:08;99471.03;;;23.03;58.32
16525;BME280;8375;33.594;-117.718;2022-09-01T09:41:38;99470.09;;;22.97;58.04
16525;BME280;8375;33.594;-117.718;2022-09-01T09:44:20;99466.63;;;22.97;57.90
16525;BME280;8375;33.594;-117.718;2022-09-01T09:46:49;99464.81;;;22.97;58.38
16525;BME280;8375;33.594;-117.718;2022-09-01T09:49:20;99455.88;;;22.92;58.53
16525;BME280;8375;33.594;-117.718;2022-09-01T09:51:53;99450.38;;;22.93;58.50
16525;BME280;8375;33.594;-117.718;2022-09-01T09:54:24;99452.22;;;22.93;58.49
16525;BME280;8375;33.594;-117.718;2022-09-01T09:57:05;99460.88;;;22.56;60.28
16525;BME280;8375;33.594;-117.718;2022-09-01T09:59:40;99459.25;;;22.55;60.05
16525;BME280;8375;33.594;-117.718;2022-09-01T10:02:25;99454.91;;;22.61;59.80
16525;BME280;8375;33.594;-117.718;2022-09-01T10:04:58;99455.09;;;22.66;59.69
16525;BME280;8375;33.594;-117.718;2022-09-01T10:07:31;99451.66;;;22.65;59.75
16525;BME280;8375;33.594;-117.718;2022-09-01T10:10:04;99439.00;;;22.67;59.90
16525;BME280;8375;33.594;-117.718;2022-09-01T10:12:33;99425.63;;;22.62;59.67
16525;BME280;8375;33.594;-117.718;2022-09-01T10:15:05;99432.13;;;22.60;60.08
16525;BME280;8375;33.594;-117.718;2022-09-01T10:17:37;99420.53;;;22.61;60.12
16525;BME280;8375;33.594;-117.718;2022-09-01T10:20:12;99427.69;;;22.60;60.30
16525;BME280;8375;33.594;-117.718;2022-09-01T10:22:44;99423.63;;;22.58;59.85
16525;BME280;8375;33.594;-117.718;2022-09-01T10:25:18;99419.16;;;22.58;60.65
16525;BME280;8375;33.594;-117.718;2022-09-01T10:27:50;99415.09;;;22.55;60.52
16525;BME280;8375;33.594;-117.718;2022-09-01T10:30:21;99428.75;;;22.52;60.79
16525;BME280;8375;33.594;-117.718;2022-09-01T10:32:51;99424.13;;;22.48;60.80
16525;BME280;8375;33.594;-117.718;2022-09-01T10:35:23;99428.63;;;22.40;60.82
16525;BME280;8375;33.594;-117.718;2022-09-01T10:37:55;99426.22;;;22.32;61.17
16525;BME280;8375;33.594;-117.718;2022-09-01T10:40:39;99424.63;;;22.31;61.24
16525;BME280;8375;33.594;-117.718;2022-09-01T10:43:35;99424.81;;;22.30;61.75
16525;BME280;8375;33.594;-117.718;2022-09-01T10:49:00;99452.06;;;22.30;61.73
16525;BME280;8375;33.594;-117.718;2022-09-01T10:51:42;99470.19;;;22.26;61.73
16525;BME280;8375;33.594;-117.718;2022-09-01T10:57:25;99459.06;;;22.18;62.14
16525;BME280;8375;33.594;-117.718;2022-09-01T11:06:02;99473.06;;;22.18;61.88
16525;BME280;8375;33.594;-117.718;2022-09-01T11:08:43;99468.19;;;22.22;61.81
16525;BME280;8375;33.594;-117.718;2022-09-01T11:11:24;99472.03;;;22.19;61.72
16525;BME280;8375;33.594;-117.718;2022-09-01T11:14:01;99468.63;;;22.19;65.95
16525;BME280;8375;33.594;-117.718;2022-09-01T11:16:34;99458.63;;;22.21;63.16
16525;BME280;8375;33.594;-117.718;2022-09-01T11:19:32;99469.03;;;22.16;62.81
16525;BME280;8375;33.594;-117.718;2022-09-01T11:22:08;99476.72;;;22.17;62.57
16525;BME280;8375;33.594;-117.718;2022-09-01T11:24:49;99476.97;;;22.16;62.19
16525;BME280;8375;33.594;-117.718;2022-09-01T11:30:35;99496.78;;;21.93;63.13
16525;BME280;8375;33.594;-117.718;2022-09-01T11:36:00;99498.84;;;21.84;64.16
16525;BME280;8375;33.594;-117.718;2022-09-01T11:38:36;99502.72;;;21.81;64.95
16525;BME280;8375;33.594;-117.718;2022-09-01T11:41:20;99512.50;;;21.74;66.24
16525;BME280;8375;33.594;-117.718;2022-09-01T11:43:51;99513.91;;;21.77;67.04
16525;BME280;8375;33.594;-117.718;2022-09-01T11:46:26;99507.63;;;21.71;67.77
16525;BME280;8375;33.594;-117.718;2022-09-01T11:48:56;99507.22;;;21.67;67.70
16525;BME280;8375;33.594;-117.718;2022-09-01T11:51:25;99505.84;;;21.65;68.11
16525;BME280;8375;33.594;-117.718;2022-09-01T11:53:58;99509.09;;;21.53;68.65
16525;BME280;8375;33.594;-117.718;2022-09-01T11:56:27;99522.47;;;21.52;69.56
16525;BME280;8375;33.594;-117.718;2022-09-01T11:58:56;99526.97;;;21.51;70.19
16525;BME280;8375;33.594;-117.718;2022-09-01T12:01:33;99531.81;;;21.48;70.24
16525;BME280;8375;33.594;-117.718;2022-09-01T12:04:20;99528.78;;;21.51;70.38
16525;BME280;8375;33.594;-117.718;2022-09-01T12:06:56;99520.47;;;21.47;70.70
16525;BME280;8375;33.594;-117.718;2022-09-01T12:09:32;99529.59;;;21.45;71.11
16525;BME280;8375;33.594;-117.718;2022-09-01T12:12:01;99528.59;;;21.46;70.72
16525;BME280;8375;33.594;-117.718;2022-09-01T12:14:30;99525.94;;;21.46;71.35
16525;BME280;8375;33.594;-117.718;2022-09-01T12:17:03;99523.91;;;21.48;71.30
16525;BME280;8375;33.594;-117.718;2022-09-01T12:19:34;99527.19;;;21.43;71.28
16525;BME280;8375;33.594;-117.718;2022-09-01T12:22:11;99522.72;;;21.37;71.62
16525;BME280;8375;33.594;-117.718;2022-09-01T12:24:45;99532.47;;;21.36;71.61
16525;BME280;8375;33.594;-117.718;2022-09-01T12:27:14;99541.19;;;21.37;71.62
16525;BME280;8375;33.594;-117.718;2022-09-01T12:29:43;99530.63;;;21.37;72.02
16525;BME280;8375;33.594;-117.718;2022-09-01T12:32:14;99533.09;;;21.32;72.09
16525;BME280;8375;33.594;-117.718;2022-09-01T12:34:45;99540.41;;;21.30;72.35
16525;BME280;8375;33.594;-117.718;2022-09-01T12:37:21;99538.16;;;21.27;72.45
16525;BME280;8375;33.594;-117.718;2022-09-01T12:39:51;99540.59;;;21.21;72.70
16525;BME280;8375;33.594;-117.718;2022-09-01T12:42:26;99538.56;;;21.23;72.99
16525;BME280;8375;33.594;-117.718;2022-09-01T12:44:57;99536.94;;;21.22;72.70
16525;BME280;8375;33.594;-117.718;2022-09-01T12:47:48;99536.53;;;21.19;72.86
16525;BME280;8375;33.594;-117.718;2022-09-01T12:50:43;99541.38;;;21.15;72.85
16525;BME280;8375;33.594;-117.718;2022-09-01T12:53:25;99544.22;;;21.07;73.53
16525;BME280;8375;33.594;-117.718;2022-09-01T12:56:02;99540.19;;;20.98;73.35
16525;BME280;8375;33.594;-117.718;2022-09-01T12:58:31;99551.75;;;20.96;73.39
16525;BME280;8375;33.594;-117.718;2022-09-01T13:01:04;99542.59;;;20.92;73.51
16525;BME280;8375;33.594;-117.718;2022-09-01T13:03:35;99548.28;;;20.89;73.99
16525;BME280;8375;33.594;-117.718;2022-09-01T13:06:04;99553.78;;;20.88;73.80
16525;BME280;8375;33.594;-117.718;2022-09-01T13:08:34;99548.06;;;20.84;73.85
16525;BME280;8375;33.594;-117.718;2022-09-01T13:11:05;99548.28;;;20.89;73.38
16525;BME280;8375;33.594;-117.718;2022-09-01T13:13:34;99552.53;;;20.90;73.28
16525;BME280;8375;33.594;-117.718;2022-09-01T13:16:03;99559.03;;;20.81;73.38
16525;BME280;8375;33.594;-117.718;2022-09-01T13:18:40;99560.47;;;20.84;73.50
16525;BME280;8375;33.594;-117.718;2022-09-01T13:21:09;99567.16;;;20.79;74.06
16525;BME280;8375;33.594;-117.718;2022-09-01T13:23:38;99561.44;;;20.76;73.91